Goffs, California
Current Conditions -  °F | °C
As of 9:56 PM on Saturday 22 Nov 2014 (Local Time) from KEED Reporting Station
Clear Clear  
Wind Chill: 62°   Ceiling: Unl
Heat Index: 62°   Visibility: 10mi
Dew Point: 28°   Wind: 3mph
Humidity: 28%   Direction: 40°NE
Pressure: 29.9"   Gusts: NA
Location:  34.6052°N, 115.241°W
Report Text: KEED 230556Z AUTO 04003KT 10SM CLR 17/M02 A2990 RMK AO2 SLP109 T01671022 10233 20161 53007
Loading
Personal Weather Stations






























Interactive Weather Map New forecast layout! Learn more

10-Day Weather Forecast

Advertisements
Track Severe Weather on mobile